Pagrindinis puslapis
METAR-TAF:

METAR-TAF

Oro uostai :

Lavan Island, Iranas

platuma: 26-48-37N, ilguma: 53-21-22E, Aukštis: 23 m

Dabartinis oras

Ataskaita buvo paskelbta 28 minutes, ne 13:00 UTC
Vėjas 8 kt iš Šiaurės Vakarų
Temperatūra 23°C
Drėgmė 65%
Slėgis 1012 hPa
Matomumas: 6000 m

METAR: OIBV 281300Z 32008KT 6000 NSC 23/16 Q1012

Laikas: 16:58 (13:28 UTC)


TAF: trūkstamas

Orai ataskaitas ir orų prognozės (METAR, TAF).

turimą stotys yra geltonos ir raudonos taškus žemėlapyje.

Perkelti pele per norėdami pamatyti stoties vardą.

Tada spustelėkite, norėdami matyti oro stebėjimo ir prognozės.

Norėdami pakeisti žemėlapį: spustelėkite ant žalios mygtukų su juodo kryžiaus žemyn,; žalią mygtuką su brūkšneliu, jei norite nutolinti; arba žalių rodyklių gretimoms žemėlapius.


METAR-TAF: